Ana Sayfa
METAR-TAF:

METAR-TAF

Havaalanları :

Askeri hava üssü

Shizuhama, Japonya

Enlem: 34-49N, Boylam: 138-18E, yükseklik: 7 m

Güncel hava durumu gözlemi

Rapor saat 05:25 UTC de 10 saat ve 33 dakika önce yapıldı.
Rüzgar batı/güneybatıdan 14 kt
Sıcaklık 31°C
Nem 63%
Basınç 1007 hPa
Görüş mesafesi 10 km veya daha fazla
2500 ft yükseklikte az bulutlu
16000 ft yükseklikte parçalı bulutlu
25000 ft yükseklikte parçalı çok bulutlu

METAR: RJNY 250525Z 24014KT 9999 FEW025 SCT160 BKN250 31/23 Q1007 RMK 1CU025 3AC160 A2975

Saat: 00:58 (15:58 UTC)


TAF: eksik

4.000'den fazla havaalanı için hava durumu gözlemleri ve tahminleri (METAR ve TAF raporları).

Kullanılabilir istasyonlar harita üzerinde sarı ve kırmızı noktalarla gösterilir.

İstasyonun adını görmek için fareyi noktanın üzerinde gezdirin.

Sonrasında hava gözlem ve tahminlerini görmek için tıklayın.

Haritayı değiştirmek için: yaklaştırmak için siyah artı işaretli yeşil düğmeye ve uzaklaştırmak için de eksi işaretli düğmeye hızla tıklayın; bitişik haritalar için yeşil okları kullanın.


METAR-TAF: